Time;durP1;ratioP1;P1;durP2;ratioP2;P2;SDS_P1;SDS_P2;PMS_P1;PMS_P2;Temp;Humidity;BMP_temperature;BMP_pressure;BME280_temperature;BME280_humidity;BME280_pressure;Samples;Min_cycle;Max_cycle;Signal;HPM_P1;HPM_P2
2021/03/23 00:01:17;;;;;;;17.15;5.30;;;;;;;1.81;60.75;99433.06;114149;1200;64471;-87
2021/03/23 00:03:47;;;;;;;17.40;5.23;;;;;;;1.79;60.55;99430.48;113894;1199;64461;-88
2021/03/23 00:06:17;;;;;;;16.35;5.20;;;;;;;1.78;60.66;99430.50;114137;1198;64295;-87
2021/03/23 00:08:46;;;;;;;17.10;5.60;;;;;;;1.78;61.25;99431.39;114133;1199;64500;-88
2021/03/23 00:11:26;;;;;;;14.43;5.37;;;;;;;1.78;61.30;99428.77;114119;1200;64471;-90
2021/03/23 00:13:54;;;;;;;17.45;5.80;;;;;;;1.81;61.12;99430.43;114133;1200;64363;-89
2021/03/23 00:16:25;;;;;;;19.00;5.17;;;;;;;1.81;61.32;99431.28;114099;1200;64330;-86
2021/03/23 00:18:52;;;;;;;16.27;4.93;;;;;;;1.82;60.69;99430.38;114167;1199;64295;-85
2021/03/23 00:21:19;;;;;;;18.60;5.30;;;;;;;1.83;60.82;99436.50;114120;1199;64430;-86
2021/03/23 00:23:46;;;;;;;16.13;4.87;;;;;;;1.76;61.08;99435.83;114075;1200;64365;-85
2021/03/23 00:26:15;;;;;;;13.80;4.97;;;;;;;1.75;60.89;99439.38;114146;1199;64696;-86
2021/03/23 00:28:47;;;;;;;11.00;4.90;;;;;;;1.70;61.32;99432.52;114142;1199;64305;-87
2021/03/23 00:31:19;;;;;;;9.93;5.07;;;;;;;1.69;60.79;99434.29;113891;1198;64346;-86
2021/03/23 00:33:46;;;;;;;16.90;5.20;;;;;;;1.74;61.12;99431.52;113930;1199;64369;-85
2021/03/23 00:36:17;;;;;;;16.87;5.37;;;;;;;1.75;61.42;99433.25;113829;1199;64362;-88
2021/03/23 00:38:44;;;;;;;11.17;5.07;;;;;;;1.77;61.09;99429.64;114092;1199;64429;-88
2021/03/23 00:41:11;;;;;;;18.90;6.10;;;;;;;1.75;61.32;99431.47;114161;1200;64378;-85
2021/03/23 00:43:38;;;;;;;11.90;4.90;;;;;;;1.76;61.50;99429.70;113854;1199;64312;-88
2021/03/23 00:46:05;;;;;;;15.43;5.50;;;;;;;1.76;61.24;99425.30;114110;1199;64449;-85
2021/03/23 00:48:32;;;;;;;14.30;5.70;;;;;;;1.77;61.67;99423.52;114074;1200;64462;-90
2021/03/23 00:50:59;;;;;;;23.85;4.95;;;;;;;1.81;61.27;99423.39;114121;1199;64315;-85
2021/03/23 00:53:26;;;;;;;16.43;4.57;;;;;;;1.81;61.52;99425.16;113912;1200;64439;-85
2021/03/23 00:55:52;;;;;;;11.60;4.20;;;;;;;1.77;61.32;99427.01;114496;1192;64359;-89
2021/03/23 00:58:19;;;;;;;14.75;4.90;;;;;;;1.71;61.42;99427.20;114452;1193;64832;-88
2021/03/23 01:00:46;;;;;;;19.20;5.27;;;;;;;1.68;61.18;99429.08;114430;1193;64500;-85
2021/03/23 01:03:12;;;;;;;22.20;5.80;;;;;;;1.68;61.18;99434.34;114408;1193;64425;-85
2021/03/23 01:05:39;;;;;;;17.30;4.70;;;;;;;1.65;61.26;99431.78;114401;1193;64318;-84
2021/03/23 01:08:07;;;;;;;19.43;4.87;;;;;;;1.60;61.75;99429.31;114400;1193;64526;-86
2021/03/23 01:10:35;;;;;;;17.27;5.40;;;;;;;1.63;61.17;99434.47;114483;1193;64320;-86
2021/03/23 01:13:02;;;;;;;16.30;5.60;;;;;;;1.65;61.22;99431.78;114372;1193;64356;-88
2021/03/23 01:15:32;;;;;;;17.83;5.53;;;;;;;1.66;61.83;99429.13;114388;1192;64500;-87
2021/03/23 01:18:00;;;;;;;15.65;4.30;;;;;;;1.69;61.74;99426.39;114387;1193;64344;-86
2021/03/23 01:20:29;;;;;;;21.87;5.60;;;;;;;1.65;61.53;99422.11;114456;1193;64398;-83
2021/03/23 01:22:55;;;;;;;13.37;4.53;;;;;;;1.69;61.94;99422.90;114414;1193;64379;-87
2021/03/23 01:25:24;;;;;;;15.90;4.90;;;;;;;1.70;61.89;99420.21;114328;1193;64439;-85
2021/03/23 01:27:51;;;;;;;12.37;4.67;;;;;;;1.74;61.50;99415.73;114359;1193;64398;-86
2021/03/23 01:30:24;;;;;;;14.17;4.37;;;;;;;1.81;61.96;99417.27;114387;1193;64471;-87
2021/03/23 01:32:52;;;;;;;19.03;5.87;;;;;;;1.84;61.96;99423.28;114370;1193;64372;-87
2021/03/23 01:35:21;;;;;;;13.60;5.10;;;;;;;1.86;61.96;99423.25;114327;1193;64816;-87
2021/03/23 01:37:48;;;;;;;13.90;5.07;;;;;;;1.88;61.67;99418.79;114436;1193;64436;-86
2021/03/23 01:40:19;;;;;;;13.90;5.10;;;;;;;1.84;61.36;99415.38;114352;1193;64403;-89
2021/03/23 01:42:48;;;;;;;12.23;4.60;;;;;;;1.87;61.60;99422.34;114330;1193;64372;-88
2021/03/23 01:45:21;;;;;;;22.33;5.70;;;;;;;1.89;62.01;99426.64;114373;1193;64363;-85
2021/03/23 01:47:50;;;;;;;16.90;5.00;;;;;;;1.88;61.71;99424.92;114411;1193;64407;-88
2021/03/23 01:50:17;;;;;;;11.10;4.53;;;;;;;1.88;61.83;99427.55;114406;1193;64439;-87
2021/03/23 01:52:49;;;;;;;17.47;4.90;;;;;;;1.87;61.46;99425.83;114349;1193;64381;-86
2021/03/23 01:55:16;;;;;;;14.60;5.20;;;;;;;1.85;61.57;99421.53;114497;1193;64305;-86
2021/03/23 01:57:46;;;;;;;20.83;7.77;;;;;;;1.83;61.82;99423.33;114374;1193;64410;-90
2021/03/23 02:00:13;;;;;;;23.70;9.17;;;;;;;1.82;61.48;99418.98;114377;1192;64327;-87
2021/03/23 02:02:40;;;;;;;23.67;7.23;;;;;;;1.82;61.75;99418.98;114392;1192;64403;-86
2021/03/23 02:05:09;;;;;;;14.97;5.60;;;;;;;1.83;62.34;99425.97;114340;1193;64359;-87
2021/03/23 02:07:40;;;;;;;19.05;5.50;;;;;;;1.78;62.36;99410.33;114396;1193;64442;-87
2021/03/23 02:10:07;;;;;;;13.95;4.90;;;;;;;1.79;61.93;99417.31;114356;1193;64407;-87
2021/03/23 02:12:33;;;;;;;14.40;5.73;;;;;;;1.80;61.84;99411.13;114319;1193;64423;-87
2021/03/23 02:15:00;;;;;;;13.80;5.03;;;;;;;1.82;62.24;99409.30;114378;1192;64359;-90
2021/03/23 02:17:33;;;;;;;15.57;5.53;;;;;;;1.84;61.85;99417.15;114383;1193;64365;-86
2021/03/23 02:20:05;;;;;;;18.00;4.80;;;;;;;1.81;62.05;99410.22;114424;1193;64432;-86
2021/03/23 02:22:34;;;;;;;15.00;5.10;;;;;;;1.82;61.79;99422.47;114362;1193;64478;-88
2021/03/23 02:25:03;;;;;;;14.20;5.20;;;;;;;1.83;62.30;99421.56;114497;1193;64356;-89
2021/03/23 02:27:30;;;;;;;18.10;5.23;;;;;;;1.77;62.34;99424.38;114331;1193;64487;-89
2021/03/23 02:30:00;;;;;;;16.83;6.20;;;;;;;1.73;61.98;99421.91;114354;1193;64390;-87
2021/03/23 02:32:27;;;;;;;13.10;4.73;;;;;;;1.72;62.47;99421.05;114452;1193;64468;-89
2021/03/23 02:34:54;;;;;;;18.50;5.85;;;;;;;1.75;62.12;99422.71;114424;1193;64359;-87
2021/03/23 02:37:20;;;;;;;12.60;4.65;;;;;;;1.77;62.09;99415.62;114398;1193;64528;-87
2021/03/23 02:39:47;;;;;;;17.63;6.27;;;;;;;1.76;62.20;99425.30;114342;1192;64308;-85
2021/03/23 02:42:14;;;;;;;18.17;5.57;;;;;;;1.76;62.28;99419.16;114341;1193;64490;-88
2021/03/23 02:44:46;;;;;;;13.23;4.50;;;;;;;1.72;62.37;99425.42;114401;1192;64356;-89
2021/03/23 02:47:17;;;;;;;14.20;4.50;;;;;;;1.72;62.67;99417.52;114428;1193;64349;-88
2021/03/23 02:49:44;;;;;;;15.57;4.43;;;;;;;1.73;62.78;99416.64;114352;1193;64452;-88
2021/03/23 02:52:12;;;;;;;11.95;4.85;;;;;;;1.74;62.16;99415.73;114370;1193;64487;-86
2021/03/23 02:54:39;;;;;;;18.83;4.63;;;;;;;1.73;62.20;99417.50;114362;1192;65031;-89
2021/03/23 02:57:07;;;;;;;16.60;4.53;;;;;;;1.72;62.40;99417.52;114372;1193;64398;-88
2021/03/23 02:59:34;;;;;;;18.27;4.00;;;;;;;1.70;62.33;99420.21;114395;1193;64301;-89
2021/03/23 03:02:03;;;;;;;15.70;3.80;;;;;;;1.70;62.46;99414.09;114392;1193;64420;-87
2021/03/23 03:04:31;;;;;;;18.30;4.70;;;;;;;1.71;62.89;99415.80;114410;1192;64244;-87
2021/03/23 03:06:58;;;;;;;13.83;4.63;;;;;;;1.72;62.79;99414.89;114358;1191;64368;-90
2021/03/23 03:09:24;;;;;;;15.63;4.13;;;;;;;1.76;62.53;99419.16;114359;1193;64388;-89
2021/03/23 03:11:51;;;;;;;16.35;4.00;;;;;;;1.77;62.79;99418.25;114411;1193;64426;-88
2021/03/23 03:14:19;;;;;;;12.97;4.23;;;;;;;1.78;62.35;99414.70;114440;1192;64349;-90
2021/03/23 03:16:47;;;;;;;13.43;4.67;;;;;;;1.75;62.30;99417.45;114344;1193;64462;-88
2021/03/23 03:19:15;;;;;;;12.73;4.87;;;;;;;1.74;62.83;99406.05;114360;1193;64375;-89
2021/03/23 03:21:42;;;;;;;14.47;4.83;;;;;;;1.80;62.48;99410.27;114351;1193;64458;-87
2021/03/23 03:24:08;;;;;;;16.40;4.55;;;;;;;1.85;62.63;99413.63;114437;1193;64295;-86
2021/03/23 03:26:35;;;;;;;13.37;4.63;;;;;;;1.93;62.78;99408.13;114321;1193;64381;-85
2021/03/23 03:29:02;;;;;;;21.43;5.93;;;;;;;2.03;63.24;99404.27;114369;1193;64452;-88
2021/03/23 03:31:31;;;;;;;19.63;5.17;;;;;;;2.12;62.92;99401.36;114416;1193;64448;-89
2021/03/23 03:34:00;;;;;;;15.00;4.30;;;;;;;2.17;62.77;99396.80;114433;1193;64375;-87
2021/03/23 03:36:29;;;;;;;15.37;3.90;;;;;;;2.22;62.98;99400.13;114460;1193;64362;-88
2021/03/23 03:38:56;;;;;;;17.17;4.60;;;;;;;2.25;62.93;99409.73;114437;1192;64458;-92
2021/03/23 03:41:24;;;;;;;14.80;5.20;;;;;;;2.25;62.65;99401.82;114366;1193;64475;-86
2021/03/23 03:43:51;;;;;;;15.73;5.20;;;;;;;2.30;62.78;99410.45;114394;1193;64385;-90
2021/03/23 03:46:18;;;;;;;19.93;5.50;;;;;;;2.31;62.93;99407.75;114383;1191;64449;-88
2021/03/23 03:48:45;;;;;;;23.77;4.80;;;;;;;2.32;62.78;99411.24;114404;1193;64292;-88
2021/03/23 03:51:12;;;;;;;16.63;4.17;;;;;;;2.31;62.75;99407.75;114447;1193;64349;-91
2021/03/23 03:53:39;;;;;;;18.10;5.30;;;;;;;2.35;62.92;99398.81;114367;1193;64465;-87
2021/03/23 03:56:05;;;;;;;15.43;5.03;;;;;;;2.39;63.07;99399.58;114329;1193;64458;-92
2021/03/23 03:58:32;;;;;;;13.13;4.73;;;;;;;2.41;63.11;99397.75;114406;1193;64448;-89
2021/03/23 04:00:58;;;;;;;16.77;4.83;;;;;;;2.43;63.39;99391.53;114440;1193;64314;-89
2021/03/23 04:03:29;;;;;;;17.97;5.40;;;;;;;2.46;62.71;99394.96;114374;1193;64416;-92
2021/03/23 04:05:57;;;;;;;17.60;5.30;;;;;;;2.48;63.37;99393.13;114376;1193;64474;-89
2021/03/23 04:08:27;;;;;;;16.67;5.10;;;;;;;2.51;63.38;99400.95;114480;1193;64359;-91
2021/03/23 04:10:57;;;;;;;27.33;5.90;;;;;;;2.51;63.33;99393.04;114414;1193;64315;-91
2021/03/23 04:13:25;;;;;;;15.10;5.10;;;;;;;2.52;63.40;99400.03;114383;1193;64443;-89
2021/03/23 04:15:53;;;;;;;14.50;5.67;;;;;;;2.51;63.08;99400.95;114418;1193;64340;-86
2021/03/23 04:18:25;;;;;;;21.03;5.50;;;;;;;2.51;63.38;99393.04;114398;1192;64372;-88
2021/03/23 04:20:55;;;;;;;18.13;5.50;;;;;;;2.52;63.36;99389.48;114416;1192;64403;-86
2021/03/23 04:23:29;;;;;;;19.23;5.87;;;;;;;2.55;63.32;99394.67;114328;1193;65619;-90
2021/03/23 04:25:56;;;;;;;16.85;5.55;;;;;;;2.55;63.26;99407.85;114394;1193;64368;-89
2021/03/23 04:28:24;;;;;;;20.75;5.60;;;;;;;2.54;63.52;99406.96;114420;1193;64289;-87
2021/03/23 04:30:51;;;;;;;22.00;6.23;;;;;;;2.56;63.35;99412.20;114480;1193;64366;-87
2021/03/23 04:33:22;;;;;;;11.80;6.00;;;;;;;2.62;64.01;99423.41;114401;1193;64429;-87
2021/03/23 04:35:57;;;;;;;22.20;6.33;;;;;;;2.63;63.62;99419.84;114366;1193;64337;-88
2021/03/23 04:38:30;;;;;;;21.13;6.57;;;;;;;2.66;63.46;99418.88;114392;1193;64391;-92
2021/03/23 04:41:00;;;;;;;16.80;6.00;;;;;;;2.67;63.29;99436.41;114367;1193;64439;-91
2021/03/23 04:43:36;;;;;;;16.93;6.87;;;;;;;2.67;63.30;99436.41;114352;1192;64448;-88
2021/03/23 04:46:03;;;;;;;15.83;6.17;;;;;;;2.67;63.56;99434.66;114372;1193;64429;-90
2021/03/23 04:48:30;;;;;;;18.20;6.83;;;;;;;2.69;63.64;99432.83;114392;1192;64423;-88
2021/03/23 04:50:58;;;;;;;23.45;7.35;;;;;;;2.71;63.97;99435.41;114371;1193;64407;-90
2021/03/23 04:53:28;;;;;;;19.47;7.27;;;;;;;2.73;63.85;99441.48;114346;1193;64346;-92
2021/03/23 04:55:55;;;;;;;17.30;7.00;;;;;;;2.73;63.70;99437.98;114606;1193;64320;-91
2021/03/23 04:58:23;;;;;;;19.40;7.40;;;;;;;2.76;63.80;99440.53;114426;1193;64423;-90
2021/03/23 05:00:51;;;;;;;18.63;7.63;;;;;;;2.77;63.97;99442.25;114447;1193;64324;-86
2021/03/23 05:03:32;;;;;;;22.30;7.47;;;;;;;2.75;63.88;99450.22;114473;1193;64362;-87
2021/03/23 05:06:06;;;;;;;25.90;8.35;;;;;;;2.75;64.17;99450.22;114742;1193;64378;-89
2021/03/23 05:08:34;;;;;;;19.63;7.83;;;;;;;2.76;64.09;99453.72;114661;1193;64333;-88
2021/03/23 05:11:01;;;;;;;20.80;7.95;;;;;;;2.76;64.22;99456.36;115930;1193;64340;-89
2021/03/23 05:13:27;;;;;;;22.30;8.23;;;;;;;2.79;64.02;99462.38;114308;1193;64442;-88
2021/03/23 05:15:54;;;;;;;17.77;7.93;;;;;;;2.81;64.02;99460.56;114432;1193;64366;-92
2021/03/23 05:18:21;;;;;;;19.05;7.20;;;;;;;2.83;64.09;99455.23;114381;1193;64439;-91
2021/03/23 05:20:48;;;;;;;21.87;7.03;;;;;;;2.84;64.27;99449.89;114403;1193;64550;-87
2021/03/23 05:23:15;;;;;;;23.10;8.35;;;;;;;2.85;64.17;99448.97;114339;1193;64529;-87
2021/03/23 05:25:42;;;;;;;20.47;8.27;;;;;;;2.86;64.36;99453.36;114357;1192;64372;-88
2021/03/23 05:28:10;;;;;;;20.73;8.60;;;;;;;2.86;64.69;99456.00;114808;1193;64368;-88
2021/03/23 05:30:38;;;;;;;20.00;7.23;;;;;;;2.87;64.09;99462.13;114405;1193;64320;-88
2021/03/23 05:33:06;;;;;;;23.60;8.07;;;;;;;2.88;64.66;99464.71;114639;1192;64362;-92
2021/03/23 05:35:34;;;;;;;26.83;7.73;;;;;;;2.92;64.41;99461.03;114374;1193;64455;-89
2021/03/23 05:38:00;;;;;;;23.33;8.67;;;;;;;2.96;64.49;99461.80;114501;1193;64288;-91
2021/03/23 05:40:35;;;;;;;18.10;7.87;;;;;;;3.01;64.39;99466.92;114670;1192;64334;-87
2021/03/23 05:43:21;;;;;;;;;;;;;;;3.04;64.69;99469.45;114347;1200;64474;-90
2021/03/23 05:45:52;;;;;;;19.63;7.93;;;;;;;3.08;64.89;99471.07;114467;1193;64295;-86
2021/03/23 05:48:26;;;;;;;17.77;8.50;;;;;;;3.10;64.61;99478.00;114312;1193;64343;-90
2021/03/23 05:51:17;;;;;;;20.15;8.00;;;;;;;3.14;64.93;99469.08;114353;1193;64462;-87
2021/03/23 05:53:52;;;;;;;24.27;9.03;;;;;;;3.19;64.85;99472.42;114501;1193;64359;-89
2021/03/23 05:56:20;;;;;;;19.00;8.97;;;;;;;3.25;64.98;99472.20;114368;1192;64484;-88
2021/03/23 05:58:53;;;;;;;20.50;8.47;;;;;;;3.31;64.95;99476.41;114469;1193;64323;-86
2021/03/23 06:01:27;;;;;;;19.00;8.47;;;;;;;3.35;65.31;99483.28;114454;1193;64462;-89
2021/03/23 06:04:01;;;;;;;19.48;9.10;;;;;;;3.37;65.11;99484.11;114658;1193;64429;-87
2021/03/23 06:06:55;;;;;;;23.63;9.47;;;;;;;3.39;65.15;99484.05;114510;1192;64334;-87
2021/03/23 06:09:29;;;;;;;21.25;9.90;;;;;;;3.43;65.07;99490.92;114487;1193;64356;-88
2021/03/23 06:12:32;;;;;;;26.67;9.00;;;;;;;3.49;65.15;99494.20;114405;1193;64542;-87
2021/03/23 06:15:29;;;;;;;24.57;10.27;;;;;;;3.52;65.23;99496.74;114767;1193;64426;-89
2021/03/23 06:18:47;;;;;;;26.65;11.20;;;;;;;3.54;65.51;99491.40;114349;1193;64465;-88
2021/03/23 06:21:22;;;;;;;35.37;13.90;;;;;;;3.56;65.31;99493.97;114156;1196;64407;-92
2021/03/23 06:24:08;;;;;;;23.20;11.45;;;;;;;3.57;65.54;99493.94;114144;1196;64532;-88
2021/03/23 06:26:49;;;;;;;28.47;12.90;;;;;;;3.58;65.60;99497.45;114422;1194;64589;-90
2021/03/23 06:29:46;;;;;;;30.65;12.65;;;;;;;3.58;65.41;99500.95;114135;1196;64301;-87
2021/03/23 06:32:35;;;;;;;19.75;10.65;;;;;;;3.64;65.60;99503.36;114475;1196;64343;-89
2021/03/23 06:35:06;;;;;;;29.90;12.80;;;;;;;3.71;65.33;99510.14;114226;1196;64432;-87
2021/03/23 06:37:36;;;;;;;29.70;16.20;;;;;;;3.76;65.49;99504.70;114352;1196;64544;-85
2021/03/23 06:40:19;;;;;;;28.75;13.95;;;;;;;3.82;65.80;99516.78;114369;1196;64505;-85
2021/03/23 06:42:52;;;;;;;24.57;13.93;;;;;;;3.90;65.58;99509.45;114346;1196;64366;-87
2021/03/23 06:46:00;;;;;;;34.10;12.10;;;;;;;4.03;65.79;99511.56;114192;1196;64331;-87
2021/03/23 06:48:29;;;;;;;23.75;11.30;;;;;;;4.19;66.01;99500.39;114086;1196;64317;-88
2021/03/23 06:51:15;;;;;;;26.40;11.30;;;;;;;4.29;65.81;99507.05;114263;1196;64548;-88
2021/03/23 06:53:43;;;;;;;28.00;12.35;;;;;;;4.39;65.36;99505.78;114078;1196;64295;-85
2021/03/23 06:56:27;;;;;;;31.83;11.70;;;;;;;4.43;65.19;99514.44;114348;1193;64430;-86
2021/03/23 06:59:14;;;;;;;20.43;12.20;;;;;;;4.50;65.47;99515.91;114487;1193;64391;-86
2021/03/23 07:01:46;;;;;;;26.55;12.85;;;;;;;4.52;65.91;99519.38;114546;1193;64407;-85
2021/03/23 07:04:25;;;;;;;32.60;13.55;;;;;;;4.52;66.68;99516.73;114697;1193;64398;-85
2021/03/23 07:07:16;;;;;;;25.53;13.40;;;;;;;4.42;65.71;99523.30;114406;1193;64420;-89
2021/03/23 07:09:55;;;;;;;23.93;11.33;;;;;;;4.46;66.17;99525.77;114433;1193;64417;-89
2021/03/23 07:12:40;;;;;;;23.83;11.90;;;;;;;4.63;65.73;99530.36;114390;1193;64443;-86
2021/03/23 07:15:19;;;;;;;25.60;11.97;;;;;;;4.81;65.76;99524.33;114401;1193;64318;-86
2021/03/23 07:17:49;;;;;;;26.83;12.27;;;;;;;5.02;66.33;99530.50;114447;1193;64417;-89
2021/03/23 07:20:28;;;;;;;24.90;12.60;;;;;;;5.00;65.52;99519.13;114494;1193;64449;-88
2021/03/23 07:22:56;;;;;;;30.60;14.50;;;;;;;5.02;65.76;99527.00;114417;1193;64337;-88
2021/03/23 07:25:40;;;;;;;23.35;12.70;;;;;;;5.06;65.61;99529.47;114512;1193;64314;-91
2021/03/23 07:28:29;;;;;;;29.10;12.97;;;;;;;5.02;65.98;99535.80;114459;1193;64346;-87
2021/03/23 07:31:12;;;;;;;24.50;12.60;;;;;;;4.93;66.27;99527.40;114355;1193;64460;-88
2021/03/23 07:33:41;;;;;;;23.90;11.60;;;;;;;4.82;66.18;99541.92;114361;1193;64609;-91
2021/03/23 07:36:14;;;;;;;21.33;11.57;;;;;;;4.74;66.13;99540.52;114460;1193;64400;-86
2021/03/23 07:39:23;;;;;;;26.93;12.00;;;;;;;4.67;66.20;99546.98;114621;1193;64410;-87
2021/03/23 07:42:02;;;;;;;29.17;12.30;;;;;;;4.65;66.21;99552.34;114550;1192;64362;-88
2021/03/23 07:44:47;;;;;;;34.17;17.33;;;;;;;4.63;66.76;99554.17;114561;1193;64346;-89
2021/03/23 07:47:30;;;;;;;29.90;15.80;;;;;;;4.60;66.64;99549.02;114612;1193;64289;-87
2021/03/23 07:50:22;;;;;;;18.27;11.67;;;;;;;4.53;66.53;99548.41;114977;1193;64433;-85
2021/03/23 07:53:25;;;;;;;40.43;18.93;;;;;;;4.50;66.50;99548.51;114760;1192;64356;-85
2021/03/23 07:56:21;;;;;;;25.83;14.10;;;;;;;4.40;66.69;99555.09;115014;1193;64266;-87
2021/03/23 07:59:23;;;;;;;30.07;14.20;;;;;;;4.39;66.57;99560.42;114801;1193;64407;-86
2021/03/23 08:02:10;;;;;;;24.87;12.07;;;;;;;4.44;67.28;99556.68;114745;1192;65826;-86
2021/03/23 08:05:16;;;;;;;21.67;10.17;;;;;;;4.48;67.10;99558.30;114827;1193;64468;-88
2021/03/23 08:07:51;;;;;;;19.60;10.13;;;;;;;4.45;67.20;99558.40;114611;1192;64736;-86
2021/03/23 08:10:20;;;;;;;21.53;10.65;;;;;;;4.44;67.44;99567.26;114588;1193;64388;-87
2021/03/23 08:12:58;;;;;;;22.07;10.47;;;;;;;4.45;67.09;99558.40;114577;1193;64663;-88
2021/03/23 08:15:49;;;;;;;19.40;10.00;;;;;;;4.36;67.57;99553.48;114467;1193;64368;-87
2021/03/23 08:18:44;;;;;;;19.87;10.20;;;;;;;4.27;68.14;99565.29;114616;1192;64363;-84
2021/03/23 08:21:32;;;;;;;21.97;10.97;;;;;;;4.16;67.82;99562.19;114597;1193;64473;-89
2021/03/23 08:24:07;;;;;;;21.47;9.50;;;;;;;4.12;67.88;99564.98;114560;1193;64413;-85
2021/03/23 08:26:55;;;;;;;21.17;10.53;;;;;;;4.10;67.89;99572.13;114634;1192;64350;-88
2021/03/23 08:29:39;;;;;;;18.90;10.95;;;;;;;4.15;67.86;99564.89;114448;1193;64474;-90
2021/03/23 08:32:30;;;;;;;18.07;10.07;;;;;;;4.19;67.95;99566.48;114497;1193;64356;-89
2021/03/23 08:35:28;;;;;;;20.33;8.73;;;;;;;4.17;67.82;99566.55;114600;1193;64337;-85
2021/03/23 08:38:08;;;;;;;17.60;9.07;;;;;;;4.06;67.96;99568.72;114600;1193;64397;-87
2021/03/23 08:40:35;;;;;;;20.77;9.97;;;;;;;4.04;68.08;99570.57;114534;1193;64362;-85
2021/03/23 08:43:03;;;;;;;22.70;11.47;;;;;;;4.11;68.28;99573.84;114691;1192;64385;-87
2021/03/23 08:45:31;;;;;;;29.73;13.97;;;;;;;4.14;68.45;99569.32;114640;1193;64333;-84
2021/03/23 08:48:09;;;;;;;20.65;11.70;;;;;;;4.14;68.57;99579.03;114567;1193;64320;-85
2021/03/23 08:50:39;;;;;;;14.65;8.70;;;;;;;4.18;68.83;99575.34;114409;1193;64468;-88
2021/03/23 08:53:30;;;;;;;22.10;9.83;;;;;;;4.16;68.27;99575.40;114416;1193;64446;-85
2021/03/23 08:55:58;;;;;;;17.47;9.53;;;;;;;4.14;68.95;99582.53;114443;1192;64557;-84
2021/03/23 08:58:37;;;;;;;17.83;9.33;;;;;;;4.19;68.78;99577.91;114480;1193;64375;-87
2021/03/23 09:01:26;;;;;;;12.43;7.30;;;;;;;4.34;68.64;99579.99;114601;1193;64429;-90
2021/03/23 09:04:16;;;;;;;12.87;7.77;;;;;;;4.46;68.81;99585.73;114624;1193;64481;-87
2021/03/23 09:06:56;;;;;;;16.95;9.45;;;;;;;4.44;68.28;99584.91;114221;1196;64548;-87
2021/03/23 09:09:26;;;;;;;18.70;8.45;;;;;;;4.43;68.50;99581.41;114115;1196;64354;-86
2021/03/23 09:12:11;;;;;;;10.67;7.17;;;;;;;4.47;68.81;99582.16;114114;1196;64334;-87
2021/03/23 09:15:10;;;;;;;11.00;6.60;;;;;;;4.43;68.84;99588.48;114574;1196;64641;-84
2021/03/23 09:18:05;;;;;;;16.10;10.15;;;;;;;4.37;68.76;99589.58;114157;1196;64800;-84
2021/03/23 09:20:35;;;;;;;18.13;9.83;;;;;;;4.37;69.16;99591.36;114145;1196;64410;-84
2021/03/23 09:25:58;;;;;;;11.70;7.40;;;;;;;4.39;69.96;99594.80;114164;1196;64494;-83
2021/03/23 09:28:44;;;;;;;15.13;8.47;;;;;;;4.37;69.49;99589.58;114164;1196;64564;-85
2021/03/23 09:31:25;;;;;;;18.77;9.07;;;;;;;4.31;69.23;99597.74;114173;1196;64308;-84
2021/03/23 09:33:54;;;;;;;19.13;8.07;;;;;;;4.26;69.53;99594.41;114210;1196;64516;-86
2021/03/23 09:36:27;;;;;;;16.30;8.80;;;;;;;4.29;69.51;99595.16;114145;1196;64312;-85
2021/03/23 09:39:15;;;;;;;16.80;9.10;;;;;;;4.26;69.40;99595.30;114145;1196;64560;-84
2021/03/23 09:41:51;;;;;;;16.90;9.10;;;;;;;4.25;69.26;99596.19;114164;1196;64483;-83
2021/03/23 09:44:18;;;;;;;11.60;6.37;;;;;;;4.25;69.11;99596.19;114311;1192;64503;-84
2021/03/23 09:46:52;;;;;;;13.53;8.00;;;;;;;4.22;69.32;99593.67;114435;1193;64401;-83
2021/03/23 09:49:44;;;;;;;13.40;8.00;;;;;;;4.33;69.89;99595.92;114363;1193;64417;-82
2021/03/23 09:52:30;;;;;;;14.23;8.07;;;;;;;4.38;69.56;99591.30;114417;1193;64363;-82
2021/03/23 09:55:00;;;;;;;14.37;8.83;;;;;;;4.44;69.90;99593.70;114381;1192;64448;-86
2021/03/23 09:57:30;;;;;;;12.70;7.60;;;;;;;4.54;69.44;99586.30;114455;1193;64416;-84
2021/03/23 10:00:00;;;;;;;12.23;7.93;;;;;;;4.55;69.58;99590.66;114535;1193;64238;-84
2021/03/23 10:02:32;;;;;;;15.55;8.10;;;;;;;4.53;69.79;99581.92;114399;1193;64529;-83
2021/03/23 10:05:18;;;;;;;8.20;5.40;;;;;;;4.53;70.06;99593.37;114495;1193;64413;-89
2021/03/23 10:07:47;;;;;;;13.03;7.27;;;;;;;4.46;69.79;99594.53;114438;1193;64363;-85
2021/03/23 10:10:31;;;;;;;18.95;10.10;;;;;;;4.55;69.84;99591.52;114401;1193;64477;-89
2021/03/23 10:13:17;;;;;;;14.40;8.90;;;;;;;4.73;70.33;99594.37;114400;1192;64484;-84
2021/03/23 10:15:44;;;;;;;15.07;8.67;;;;;;;4.83;70.10;99601.00;114415;1193;64548;-86
2021/03/23 10:18:18;;;;;;;13.05;8.55;;;;;;;4.86;69.98;99600.89;114453;1192;64443;-85
2021/03/23 10:20:56;;;;;;;18.03;9.70;;;;;;;5.00;70.36;99600.33;114476;1193;64468;-87
2021/03/23 10:23:24;;;;;;;11.53;7.63;;;;;;;5.32;69.80;99593.70;114474;1192;64373;-82
2021/03/23 10:25:52;;;;;;;11.53;6.83;;;;;;;5.45;69.63;99594.90;114457;1193;64343;-87
2021/03/23 10:28:27;;;;;;;13.67;8.77;;;;;;;5.43;70.10;99596.77;114376;1193;64478;-85
2021/03/23 10:31:10;;;;;;;14.33;8.35;;;;;;;5.46;70.22;99596.62;114446;1193;64369;-85
2021/03/23 10:33:39;;;;;;;14.65;8.90;;;;;;;5.35;70.01;99591.80;114461;1192;64346;-87
2021/03/23 10:36:12;;;;;;;13.80;8.37;;;;;;;5.41;69.97;99593.33;114492;1193;64397;-85
2021/03/23 10:38:41;;;;;;;13.37;9.70;;;;;;;5.72;69.94;99587.55;114402;1192;64451;-84
2021/03/23 10:41:17;;;;;;;14.40;9.90;;;;;;;5.98;69.74;99594.41;114511;1193;64298;-83
2021/03/23 10:43:48;;;;;;;14.80;9.23;;;;;;;6.22;69.46;99590.61;114387;1193;64446;-85
2021/03/23 10:46:33;;;;;;;14.87;10.50;;;;;;;6.43;69.51;99579.97;114415;1193;64365;-83
2021/03/23 10:49:14;;;;;;;15.40;10.33;;;;;;;6.64;69.04;99584.25;114361;1193;64356;-86
2021/03/23 10:51:45;;;;;;;16.15;10.40;;;;;;;7.04;69.06;99575.20;114353;1193;64369;-85
2021/03/23 10:54:12;;;;;;;16.43;11.63;;;;;;;7.53;69.50;99585.17;114380;1193;64432;-83
2021/03/23 10:56:51;;;;;;;16.83;9.43;;;;;;;7.64;68.28;99581.98;114467;1193;64394;-84
2021/03/23 10:59:19;;;;;;;20.80;11.43;;;;;;;7.56;68.17;99585.00;114365;1193;64365;-83
2021/03/23 11:02:00;;;;;;;16.10;11.57;;;;;;;7.56;68.36;99582.34;114462;1193;64324;-85
2021/03/23 11:04:28;;;;;;;13.93;9.87;;;;;;;7.54;68.03;99582.43;114432;1193;64410;-85
2021/03/23 11:07:15;;;;;;;17.13;11.00;;;;;;;7.83;68.48;99582.73;114404;1192;64362;-85
2021/03/23 11:09:42;;;;;;;10.00;6.93;;;;;;;8.04;67.74;99580.73;114413;1193;64366;-86
2021/03/23 11:12:09;;;;;;;13.00;7.95;;;;;;;7.86;67.90;99574.58;114358;1193;64295;-82
2021/03/23 11:14:35;;;;;;;13.43;9.00;;;;;;;7.53;68.43;99571.89;114391;1192;64407;-85
2021/03/23 11:17:04;;;;;;;15.47;9.43;;;;;;;7.29;69.10;99582.81;114347;1193;64372;-89
2021/03/23 11:19:37;;;;;;;18.70;12.47;;;;;;;7.08;68.88;99583.04;114346;1193;64451;-84
2021/03/23 11:22:04;;;;;;;12.53;7.03;;;;;;;6.87;68.06;99584.92;114466;1193;64378;-84
2021/03/23 11:24:33;;;;;;;12.13;7.33;;;;;;;6.78;68.86;99592.41;114394;1193;64381;-85
2021/03/23 11:27:00;;;;;;;73.43;29.27;;;;;;;6.81;68.95;99588.77;114430;1192;64800;-84
2021/03/23 11:29:27;;;;;;;18.60;9.95;;;;;;;6.85;68.92;99592.11;114360;1193;64718;-83
2021/03/23 11:31:55;;;;;;;28.50;11.35;;;;;;;6.94;68.32;99591.69;114323;1192;64356;-88
2021/03/23 11:34:22;;;;;;;21.40;9.70;;;;;;;7.04;68.74;99595.59;114344;1193;64436;-83
2021/03/23 11:36:50;;;;;;;14.10;7.80;;;;;;;7.23;69.30;99590.23;114423;1193;64334;-87
2021/03/23 11:39:19;;;;;;;31.13;12.57;;;;;;;7.36;68.89;99585.16;114401;1191;64368;-84
2021/03/23 11:42:10;;;;;;;30.37;13.07;;;;;;;7.48;68.68;99581.89;114386;1193;64291;-86
2021/03/23 11:44:43;;;;;;;66.33;23.53;;;;;;;7.61;69.17;99588.29;114368;1193;64445;-85
2021/03/23 11:47:26;;;;;;;26.83;11.87;;;;;;;7.69;68.73;99590.55;114365;1193;64439;-84
2021/03/23 11:50:04;;;;;;;35.43;13.43;;;;;;;7.63;68.72;99585.55;114356;1192;64362;-84
2021/03/23 11:52:31;;;;;;;42.30;15.27;;;;;;;7.48;68.99;99601.34;114314;1193;64464;-86
2021/03/23 11:55:02;;;;;;;22.85;10.40;;;;;;;7.34;69.25;99597.67;114411;1192;64349;-84
2021/03/23 11:57:30;;;;;;;33.77;13.37;;;;;;;7.25;69.50;99591.89;114374;1193;64304;-83